Time;durP1;ratioP1;P1;durP2;ratioP2;P2;SDS_P1;SDS_P2;PMS_P1;PMS_P2;Temp;Humidity;BMP_temperature;BMP_pressure;BME280_temperature;BME280_humidity;BME280_pressure;Samples;Min_cycle;Max_cycle;Signal;HPM_P1;HPM_P2
2022/06/03 00:00:20;;;;;;;5.40;4.80;;;15.90;94.20;;;;;;5098497;28;20464;-45
2022/06/03 00:03:12;;;;;;;5.27;4.87;;;15.90;94.30;;;;;;5080875;28;20525;-45
2022/06/03 00:06:12;;;;;;;5.80;5.20;;;15.90;94.40;;;;;;5098612;28;20708;-44
2022/06/03 00:08:59;;;;;;;5.20;4.80;;;15.80;94.50;;;;;;5098088;28;20821;-44
2022/06/03 00:11:31;;;;;;;5.83;5.33;;;15.80;94.70;;;;;;5098473;28;20420;-44
2022/06/03 00:14:12;;;;;;;5.50;5.00;;;15.80;94.90;;;;;;5098513;28;20412;-44
2022/06/03 00:17:07;;;;;;;6.10;5.60;;;15.70;95.10;;;;;;5098462;28;20415;-44
2022/06/03 00:20:02;;;;;;;5.57;5.10;;;15.70;95.20;;;;;;5097336;28;20701;-44
2022/06/03 00:22:56;;;;;;;4.70;4.30;;;15.70;95.40;;;;;;5097111;28;20514;-44
2022/06/03 00:25:51;;;;;;;5.17;4.77;;;15.60;95.40;;;;;;5098112;28;20418;-44
2022/06/03 00:28:38;;;;;;;5.23;4.70;;;15.60;95.50;;;;;;5098402;28;20483;-44
2022/06/03 00:31:29;;;;;;;5.50;5.03;;;15.60;95.50;;;;;;5098293;28;20427;-44
2022/06/03 00:33:58;;;;;;;4.87;4.47;;;15.60;95.70;;;;;;5096942;28;20509;-44
2022/06/03 00:36:48;;;;;;;6.00;5.40;;;15.50;95.70;;;;;;5098124;28;20523;-44
2022/06/03 00:39:49;;;;;;;5.50;4.80;;;15.50;95.70;;;;;;5098439;28;20573;-44
2022/06/03 00:42:29;;;;;;;5.17;4.70;;;15.50;95.60;;;;;;5097288;28;20860;-44
2022/06/03 00:45:29;;;;;;;5.07;4.67;;;15.50;95.60;;;;;;5096615;28;20419;-44
2022/06/03 00:48:00;;;;;;;5.23;4.70;;;15.50;95.70;;;;;;5097897;28;20489;-44
2022/06/03 00:50:50;;;;;;;6.00;5.50;;;15.50;95.70;;;;;;5098001;28;20688;-44
2022/06/03 00:53:22;;;;;;;5.47;4.97;;;15.40;96.00;;;;;;5096800;28;20462;-44
2022/06/03 00:56:13;;;;;;;6.07;5.67;;;15.40;95.80;;;;;;5096849;28;20434;-44
2022/06/03 00:58:38;;;;;;;5.90;5.40;;;15.40;95.90;;;;;;5097165;28;20421;-44
2022/06/03 01:01:07;;;;;;;5.37;4.97;;;15.40;96.10;;;;;;5097010;28;20474;-44
2022/06/03 01:03:56;;;;;;;5.13;4.73;;;15.30;96.00;;;;;;5097348;28;20524;-44
2022/06/03 01:06:28;;;;;;;5.90;5.30;;;15.20;96.10;;;;;;5096797;28;20423;-44
2022/06/03 01:09:06;;;;;;;5.33;4.93;;;15.20;96.30;;;;;;5096778;28;20728;-44
2022/06/03 01:11:40;;;;;;;5.67;5.23;;;15.10;96.40;;;;;;5096538;28;20431;-44
2022/06/03 01:14:40;;;;;;;5.37;4.87;;;15.10;96.50;;;;;;5097732;28;20433;-44
2022/06/03 01:17:38;;;;;;;5.70;5.23;;;15.10;96.60;;;;;;5093275;28;20453;-44
2022/06/03 01:23:32;;;;;;;6.87;6.17;;;15.00;96.60;;;;;;5097239;28;20410;-44
2022/06/03 01:26:03;;;;;;;6.37;5.80;;;15.00;96.60;;;;;;5097218;28;20777;-44
2022/06/03 01:28:53;;;;;;;5.73;5.33;;;15.00;96.60;;;;;;5097307;28;20567;-44
2022/06/03 01:31:18;;;;;;;6.10;5.60;;;15.00;96.60;;;;;;5097677;28;20863;-44
2022/06/03 01:34:01;;;;;;;5.80;5.40;;;14.90;96.60;;;;;;5097477;28;20402;-44
2022/06/03 01:36:59;;;;;;;5.77;5.30;;;14.90;96.60;;;;;;5096604;28;20186;-44
2022/06/03 01:39:58;;;;;;;6.20;5.60;;;14.90;96.60;;;;;;5097846;28;20876;-44
2022/06/03 01:42:43;;;;;;;5.00;4.70;;;14.90;96.60;;;;;;5097152;28;20829;-44
2022/06/03 01:45:32;;;;;;;6.60;5.87;;;15.00;96.70;;;;;;5097198;28;20483;-44
2022/06/03 01:48:10;;;;;;;6.50;5.93;;;14.90;96.60;;;;;;5096884;28;20513;-44
2022/06/03 01:50:54;;;;;;;5.77;5.27;;;14.90;96.60;;;;;;5096584;28;20505;-44
2022/06/03 01:53:29;;;;;;;6.00;5.50;;;14.90;96.70;;;;;;5097927;28;20871;-44
2022/06/03 01:56:19;;;;;;;6.23;5.80;;;14.90;96.60;;;;;;5097021;28;20455;-44
2022/06/03 01:59:05;;;;;;;6.40;5.80;;;14.90;96.60;;;;;;5097707;28;20825;-44
2022/06/03 02:01:52;;;;;;;5.60;5.20;;;14.90;96.60;;;;;;5096993;28;20663;-44
2022/06/03 02:04:47;;;;;;;5.87;5.27;;;14.80;96.70;;;;;;5097337;28;20509;-44
2022/06/03 02:07:50;;;;;;;6.20;5.70;;;14.80;96.60;;;;;;5096302;28;20416;-44
2022/06/03 02:10:53;;;;;;;6.33;5.77;;;14.80;96.70;;;;;;5097312;28;20445;-44
2022/06/03 02:13:24;;;;;;;5.60;5.20;;;14.80;96.70;;;;;;5097362;28;20441;-44
2022/06/03 02:15:55;;;;;;;7.80;5.73;;;14.80;96.50;;;;;;5097424;28;20422;-44
2022/06/03 02:18:35;;;;;;;6.20;5.70;;;14.80;96.50;;;;;;5101059;28;20427;-44
2022/06/03 02:21:22;;;;;;;6.07;5.57;;;14.90;96.60;;;;;;5099976;28;20469;-44
2022/06/03 02:24:13;;;;;;;6.43;5.93;;;14.90;96.60;;;;;;5099663;28;20421;-44
2022/06/03 02:27:03;;;;;;;5.90;5.50;;;14.90;96.70;;;;;;5099693;28;20737;-44
2022/06/03 02:33:19;;;;;;;5.43;5.03;;;14.80;96.70;;;;;;5099910;28;20409;-44
2022/06/03 02:35:52;;;;;;;6.20;5.60;;;14.80;96.80;;;;;;5068185;28;20426;-44
2022/06/03 02:38:45;;;;;;;6.90;6.30;;;14.80;97.00;;;;;;5099602;28;20413;-44
2022/06/03 02:41:31;;;;;;;6.10;5.60;;;14.80;97.10;;;;;;5099275;28;20815;-44
2022/06/03 02:44:15;;;;;;;6.70;6.20;;;14.80;97.20;;;;;;5100148;28;20411;-44
2022/06/03 02:47:03;;;;;;;6.27;5.40;;;14.80;97.20;;;;;;5099022;28;20434;-44
2022/06/03 02:50:03;;;;;;;5.70;5.30;;;14.80;97.20;;;;;;5099910;28;20832;-44
2022/06/03 02:52:47;;;;;;;6.63;6.03;;;14.80;97.10;;;;;;5098413;28;20421;-43
2022/06/03 02:55:24;;;;;;;6.70;6.10;;;14.80;97.10;;;;;;5100038;28;20505;-44
2022/06/03 02:58:21;;;;;;;5.93;5.43;;;14.80;97.20;;;;;;5099909;28;20478;-44
2022/06/03 03:01:11;;;;;;;6.33;5.83;;;14.80;97.20;;;;;;5099369;28;20467;-43
2022/06/03 03:03:58;;;;;;;6.20;5.67;;;14.90;97.20;;;;;;5098429;28;20981;-44
2022/06/03 03:06:47;;;;;;;6.03;5.53;;;14.90;97.10;;;;;;5097848;28;20412;-44
2022/06/03 03:09:43;;;;;;;6.40;5.80;;;14.90;97.10;;;;;;5097250;28;20391;-44
2022/06/03 03:12:42;;;;;;;6.10;5.60;;;14.90;97.10;;;;;;5096842;28;20944;-44
2022/06/03 03:15:23;;;;;;;5.77;5.37;;;15.00;97.10;;;;;;5094753;28;20828;-44
2022/06/03 03:18:14;;;;;;;5.50;5.10;;;15.00;97.10;;;;;;5096270;28;20861;-45
2022/06/03 03:21:07;;;;;;;6.37;5.87;;;15.00;97.10;;;;;;5096510;28;20459;-44
2022/06/03 03:23:45;;;;;;;6.13;5.63;;;15.10;97.10;;;;;;5098095;28;20476;-44
2022/06/03 03:26:28;;;;;;;6.97;6.37;;;15.00;97.10;;;;;;5098631;28;20814;-44
2022/06/03 03:29:16;;;;;;;6.37;5.90;;;15.10;97.20;;;;;;5097116;28;20919;-44
2022/06/03 03:31:57;;;;;;;6.27;5.67;;;15.00;97.30;;;;;;5097734;28;20421;-46
2022/06/03 03:34:42;;;;;;;6.90;6.40;;;15.00;97.40;;;;;;5099199;28;20438;-44
2022/06/03 03:37:32;;;;;;;7.13;6.53;;;15.00;97.50;;;;;;5099299;28;20432;-44
2022/06/03 03:40:29;;;;;;;6.53;6.00;;;15.00;97.40;;;;;;5097960;28;20421;-44
2022/06/03 03:43:27;;;;;;;7.63;6.90;;;15.00;97.40;;;;;;5096937;28;20751;-42
2022/06/03 03:46:22;;;;;;;6.73;6.07;;;15.00;97.50;;;;;;5086170;28;20488;-44
2022/06/03 03:49:07;;;;;;;6.30;5.90;;;15.00;97.70;;;;;;5097342;28;20457;-44
2022/06/03 03:51:45;;;;;;;7.47;6.87;;;15.00;97.90;;;;;;5096865;28;20487;-44
2022/06/03 03:54:41;;;;;;;6.83;6.30;;;15.00;97.50;;;;;;5097545;28;20468;-44
2022/06/03 03:57:29;;;;;;;7.37;6.87;;;15.00;97.50;;;;;;5097589;28;20569;-44
2022/06/03 04:00:24;;;;;;;7.37;6.77;;;15.00;97.60;;;;;;5097275;28;20419;-44
2022/06/03 04:03:11;;;;;;;7.40;6.80;;;15.00;97.60;;;;;;5025199;28;20434;-42
2022/06/03 04:06:01;;;;;;;6.80;6.10;;;15.00;97.60;;;;;;5096850;28;20474;-44
2022/06/03 04:09:21;;;;;;;5.60;5.20;;;15.10;97.70;;;;;;5097031;28;20437;-44
2022/06/03 04:12:08;;;;;;;6.53;6.03;;;15.20;97.60;;;;;;5015044;28;20716;-44
2022/06/03 04:14:58;;;;;;;7.13;6.43;;;15.30;97.50;;;;;;5097711;28;20708;-44
2022/06/03 04:17:45;;;;;;;6.77;6.17;;;15.40;97.40;;;;;;5097805;28;20415;-44
2022/06/03 04:20:44;;;;;;;6.60;5.93;;;15.40;97.20;;;;;;5097324;28;20458;-44
2022/06/03 04:23:24;;;;;;;7.30;6.57;;;15.50;97.10;;;;;;5079257;28;20419;-44
2022/06/03 04:26:17;;;;;;;6.10;5.60;;;15.60;97.10;;;;;;5096528;28;20859;-44
2022/06/03 04:29:34;;;;;;;7.17;6.67;;;15.70;97.00;;;;;;5096159;28;20474;-44
2022/06/03 04:32:22;;;;;;;6.97;6.47;;;15.70;97.00;;;;;;5096470;28;20459;-44
2022/06/03 04:35:09;;;;;;;9.70;6.90;;;15.80;97.10;;;;;;5094308;28;20511;-44
2022/06/03 04:38:13;;;;;;;7.23;6.67;;;15.90;97.10;;;;;;5095850;28;20423;-44
2022/06/03 04:40:58;;;;;;;6.40;5.90;;;16.00;96.90;;;;;;5013274;28;20584;-44
2022/06/03 04:43:44;;;;;;;7.70;7.03;;;16.10;96.80;;;;;;5012549;28;20890;-44
2022/06/03 04:46:28;;;;;;;7.77;7.00;;;16.20;96.70;;;;;;5072838;28;20433;-44
2022/06/03 04:49:28;;;;;;;6.80;6.30;;;16.30;96.70;;;;;;5095233;28;20416;-44
2022/06/03 04:52:02;;;;;;;6.70;5.97;;;16.40;96.70;;;;;;5095054;28;20430;-45
2022/06/03 04:55:01;;;;;;;7.20;6.60;;;16.40;96.70;;;;;;5095514;28;20455;-44
2022/06/03 04:58:05;;;;;;;7.53;6.83;;;16.50;96.90;;;;;;5094798;28;20827;-45
2022/06/03 05:01:08;;;;;;;7.80;7.10;;;16.50;96.80;;;;;;5095257;28;20484;-45
2022/06/03 05:03:58;;;;;;;8.10;6.43;;;16.70;96.70;;;;;;5094869;28;20407;-45
2022/06/03 05:06:54;;;;;;;8.27;7.43;;;16.80;96.60;;;;;;5093937;28;20475;-45
2022/06/03 05:09:49;;;;;;;8.23;7.53;;;16.90;96.40;;;;;;5094997;28;20754;-45
2022/06/03 05:12:37;;;;;;;8.23;7.50;;;17.10;96.10;;;;;;5093088;28;20530;-45
2022/06/03 05:15:35;;;;;;;9.67;8.87;;;17.30;95.80;;;;;;5092715;28;20506;-45
2022/06/03 05:18:01;;;;;;;9.30;8.40;;;17.40;95.50;;;;;;5050035;28;20420;-45
2022/06/03 05:20:54;;;;;;;8.40;7.80;;;17.50;95.20;;;;;;5093867;28;20470;-45
2022/06/03 05:23:34;;;;;;;8.50;7.50;;;17.50;95.20;;;;;;5094362;28;20256;-45
2022/06/03 05:26:37;;;;;;;8.43;7.63;;;17.50;95.30;;;;;;5093696;28;20497;-45
2022/06/03 05:29:14;;;;;;;7.73;6.80;;;17.50;95.40;;;;;;5092632;28;20945;-45
2022/06/03 05:31:48;;;;;;;7.50;6.90;;;17.60;95.40;;;;;;5092223;28;20414;-45
2022/06/03 05:34:31;;;;;;;7.00;6.40;;;17.70;95.30;;;;;;5092505;28;20813;-45
2022/06/03 05:37:24;;;;;;;7.60;6.87;;;17.80;95.10;;;;;;5091172;28;20430;-45
2022/06/03 05:40:15;;;;;;;8.00;7.33;;;18.00;94.80;;;;;;5090274;28;20427;-45
2022/06/03 05:42:59;;;;;;;7.57;6.90;;;18.20;94.50;;;;;;5075034;28;20440;-45
2022/06/03 05:45:43;;;;;;;7.60;6.90;;;18.40;94.30;;;;;;5093020;28;20422;-45
2022/06/03 05:48:42;;;;;;;11.07;6.93;;;18.50;94.00;;;;;;5091116;28;20531;-45
2022/06/03 05:51:13;;;;;;;8.13;7.00;;;18.80;93.70;;;;;;5092576;28;20422;-45
2022/06/03 05:54:12;;;;;;;8.97;8.27;;;18.90;93.40;;;;;;5093465;28;20424;-45
2022/06/03 05:57:05;;;;;;;7.90;7.30;;;19.10;93.10;;;;;;5095877;28;20403;-45
2022/06/03 05:59:46;;;;;;;7.63;7.03;;;19.20;92.90;;;;;;5097026;28;20742;-45
2022/06/03 06:02:18;;;;;;;8.80;7.90;;;19.40;92.60;;;;;;5096736;28;20484;-45
2022/06/03 06:04:50;;;;;;;6.90;6.30;;;19.50;92.40;;;;;;5096101;28;20499;-43
2022/06/03 06:07:26;;;;;;;6.47;5.97;;;19.70;92.20;;;;;;5095706;28;20935;-45
2022/06/03 06:10:10;;;;;;;9.00;8.23;;;19.90;91.90;;;;;;5096583;28;20411;-45
2022/06/03 06:12:53;;;;;;;7.90;7.20;;;20.10;91.60;;;;;;5096677;28;20432;-46
2022/06/03 06:15:26;;;;;;;8.00;6.40;;;20.20;91.60;;;;;;5098099;28;20417;-45
2022/06/03 06:17:58;;;;;;;6.43;5.93;;;20.30;91.40;;;;;;5098598;28;20424;-46
2022/06/03 06:20:35;;;;;;;8.23;7.50;;;20.40;91.40;;;;;;5099211;28;20479;-46
2022/06/03 06:23:18;;;;;;;7.53;6.93;;;20.50;91.20;;;;;;5097922;28;20422;-46
2022/06/03 06:26:02;;;;;;;7.83;7.23;;;20.60;90.90;;;;;;5080046;28;20873;-46
2022/06/03 06:28:56;;;;;;;7.90;7.30;;;20.90;90.80;;;;;;5098455;28;20497;-45
2022/06/03 06:31:53;;;;;;;7.83;7.10;;;21.10;90.40;;;;;;5098280;28;20433;-46
2022/06/03 06:34:31;;;;;;;7.63;7.03;;;21.30;89.30;;;;;;5098205;28;20436;-46
2022/06/03 06:37:03;;;;;;;7.77;7.17;;;21.40;88.70;;;;;;5096445;28;20571;-45
2022/06/03 06:39:48;;;;;;;7.33;6.83;;;21.50;87.90;;;;;;5094977;28;20538;-46
2022/06/03 06:42:45;;;;;;;8.33;7.63;;;21.50;87.50;;;;;;5094713;28;20873;-44
2022/06/03 06:45:16;;;;;;;7.00;6.50;;;21.60;87.50;;;;;;5093763;28;20470;-44
2022/06/03 06:48:15;;;;;;;7.07;6.37;;;21.60;87.50;;;;;;5095816;28;20839;-44
2022/06/03 06:50:43;;;;;;;8.70;8.10;;;21.70;86.90;;;;;;5060121;28;20555;-44
2022/06/03 06:53:26;;;;;;;7.73;7.13;;;22.00;86.60;;;;;;5093946;28;20777;-44
2022/06/03 06:56:01;;;;;;;7.00;6.50;;;22.20;85.90;;;;;;5094894;28;20423;-44
2022/06/03 06:58:44;;;;;;;7.40;6.70;;;22.40;85.00;;;;;;5094002;28;20416;-44
2022/06/03 07:01:12;;;;;;;7.27;6.77;;;22.60;84.00;;;;;;5094672;28;20561;-44
2022/06/03 07:04:00;;;;;;;6.57;5.93;;;22.60;84.20;;;;;;5097093;28;20422;-46
2022/06/03 07:06:51;;;;;;;6.30;5.77;;;22.80;84.00;;;;;;5096931;28;20418;-47
2022/06/03 07:09:17;;;;;;;6.53;5.93;;;23.10;82.30;;;;;;5094213;28;21007;-45
2022/06/03 07:11:50;;;;;;;6.53;6.03;;;23.40;81.40;;;;;;5096796;28;20429;-45
2022/06/03 07:14:24;;;;;;;5.40;5.00;;;23.80;80.90;;;;;;5096166;28;20195;-44
2022/06/03 07:20:22;;;;;;;6.90;5.90;;;24.70;77.60;;;;;;5093693;28;20421;-47
2022/06/03 07:22:58;;;;;;;6.50;6.00;;;25.30;75.80;;;;;;4980514;28;20446;-48
2022/06/03 07:25:37;;;;;;;5.80;5.20;;;25.70;73.10;;;;;;5085489;28;20471;-47
2022/06/03 07:28:29;;;;;;;7.63;7.00;;;25.90;72.40;;;;;;5096277;28;20500;-46
2022/06/03 07:31:13;;;;;;;6.30;5.80;;;25.90;70.80;;;;;;5096850;28;20845;-46
2022/06/03 07:34:02;;;;;;;6.63;6.00;;;26.00;70.70;;;;;;5097247;28;20838;-48
2022/06/03 07:36:30;;;;;;;6.00;5.60;;;26.10;70.30;;;;;;5097624;28;20435;-46
2022/06/03 07:39:01;;;;;;;5.97;5.53;;;26.20;69.40;;;;;;5095512;28;20406;-44
2022/06/03 07:41:54;;;;;;;5.90;5.40;;;26.20;69.10;;;;;;5096646;28;20468;-48
2022/06/03 07:44:24;;;;;;;5.77;5.27;;;26.50;68.80;;;;;;5086154;28;20457;-47
2022/06/03 07:47:03;;;;;;;6.00;5.50;;;26.80;67.30;;;;;;5096821;28;20442;-45
2022/06/03 07:49:31;;;;;;;6.00;5.60;;;27.00;65.60;;;;;;5095599;28;20778;-48
2022/06/03 07:52:05;;;;;;;5.37;4.90;;;27.00;65.60;;;;;;5094552;28;20451;-46
2022/06/03 07:54:36;;;;;;;5.87;4.77;;;27.20;65.40;;;;;;5095829;28;20795;-49
2022/06/03 07:57:07;;;;;;;5.67;5.27;;;27.30;65.10;;;;;;5095459;28;20426;-49
2022/06/03 07:59:34;;;;;;;6.47;5.30;;;27.30;64.50;;;;;;5095228;28;20735;-50
2022/06/03 08:02:14;;;;;;;9.20;6.00;;;27.40;64.40;;;;;;5095559;28;20467;-50
2022/06/03 08:04:40;;;;;;;6.17;5.77;;;27.50;64.00;;;;;;5094707;28;20411;-47
2022/06/03 08:13:04;;;;;;;4.77;4.47;;;27.40;63.40;;;;;;5095604;28;20418;-47
2022/06/03 08:15:34;;;;;;;5.80;5.40;;;27.50;62.00;;;;;;5094764;28;20414;-47
2022/06/03 08:18:00;;;;;;;5.23;4.83;;;27.70;61.40;;;;;;5094096;28;20488;-43
2022/06/03 08:20:28;;;;;;;5.20;4.80;;;27.80;60.20;;;;;;5095398;28;20477;-43
2022/06/03 08:22:54;;;;;;;5.87;5.27;;;28.10;60.10;;;;;;5093561;28;20503;-46
2022/06/03 08:25:28;;;;;;;5.80;5.30;;;28.40;59.80;;;;;;5092809;28;20435;-47
2022/06/03 08:27:55;;;;;;;5.20;4.70;;;28.90;59.40;;;;;;5093318;28;20592;-46
2022/06/03 08:30:24;;;;;;;5.20;4.83;;;29.50;58.50;;;;;;5093426;28;20522;-46
2022/06/03 08:32:53;;;;;;;5.20;4.70;;;29.60;56.60;;;;;;5094573;28;20419;-47
2022/06/03 08:35:23;;;;;;;5.27;4.87;;;29.20;57.10;;;;;;5094911;28;20424;-47
2022/06/03 08:37:56;;;;;;;5.43;5.03;;;29.30;57.10;;;;;;5094068;28;20411;-49
2022/06/03 08:40:35;;;;;;;5.60;5.17;;;28.80;57.00;;;;;;5093547;28;20463;-47
2022/06/03 08:43:22;;;;;;;5.37;4.87;;;28.60;57.00;;;;;;5093280;28;20447;-46
2022/06/03 08:45:54;;;;;;;5.50;5.03;;;28.60;57.30;;;;;;5093520;28;20712;-46
2022/06/03 08:48:23;;;;;;;4.43;4.03;;;28.40;56.70;;;;;;5093685;28;20406;-48
2022/06/03 08:51:00;;;;;;;5.37;4.97;;;28.30;57.50;;;;;;5094712;28;20437;-47
2022/06/03 08:53:45;;;;;;;5.80;5.17;;;28.20;57.20;;;;;;5093660;28;20415;-48
2022/06/03 08:56:14;;;;;;;5.57;5.17;;;28.20;57.60;;;;;;5093467;28;20809;-49
2022/06/03 08:58:52;;;;;;;5.80;5.40;;;28.20;57.60;;;;;;5093627;28;20400;-49
2022/06/03 09:01:36;;;;;;;5.07;4.63;;;28.30;57.00;;;;;;5093498;28;20808;-48
2022/06/03 09:04:20;;;;;;;5.60;5.20;;;28.30;57.50;;;;;;5094476;28;20410;-46
2022/06/03 09:07:10;;;;;;;4.80;4.40;;;28.50;58.00;;;;;;5093423;28;20416;-49
2022/06/03 09:09:48;;;;;;;5.17;4.77;;;28.80;58.50;;;;;;5093408;28;20415;-49
2022/06/03 09:12:29;;;;;;;5.10;4.70;;;29.20;56.00;;;;;;5089765;28;20696;-48
2022/06/03 09:14:57;;;;;;;5.17;4.77;;;29.50;55.00;;;;;;5093313;28;20443;-47
2022/06/03 09:17:42;;;;;;;5.43;5.03;;;29.30;53.70;;;;;;5092112;28;20399;-48
2022/06/03 09:20:17;;;;;;;5.17;4.77;;;29.00;54.40;;;;;;5093022;28;20438;-47
2022/06/03 09:22:44;;;;;;;5.20;4.80;;;29.00;55.00;;;;;;5076817;28;20706;-51
2022/06/03 09:25:11;;;;;;;5.10;4.70;;;28.90;54.80;;;;;;5093375;28;20415;-50
2022/06/03 09:27:37;;;;;;;6.10;5.43;;;28.90;55.00;;;;;;5098069;28;20495;-53
2022/06/03 09:30:06;;;;;;;5.93;4.93;;;28.60;55.70;;;;;;5100312;28;20385;-51
2022/06/03 09:32:39;;;;;;;5.87;5.37;;;28.30;55.80;;;;;;5098359;28;20927;-51
2022/06/03 09:35:09;;;;;;;5.90;5.40;;;28.40;56.40;;;;;;5096942;28;20431;-48
2022/06/03 09:37:38;;;;;;;5.17;4.63;;;28.50;56.40;;;;;;5097955;28;20450;-48
2022/06/03 09:40:09;;;;;;;5.93;5.43;;;28.80;56.70;;;;;;5098792;28;20704;-50
2022/06/03 09:42:35;;;;;;;6.23;5.63;;;29.20;55.90;;;;;;5100129;28;20384;-50
2022/06/03 09:45:04;;;;;;;6.17;5.70;;;29.40;54.90;;;;;;5100778;28;20429;-48
2022/06/03 09:47:30;;;;;;;5.23;4.70;;;29.30;55.00;;;;;;5098435;28;20756;-52
2022/06/03 09:49:56;;;;;;;6.30;5.70;;;29.40;54.80;;;;;;5098654;28;20408;-48
2022/06/03 09:52:23;;;;;;;5.80;5.30;;;29.60;54.70;;;;;;5099135;28;20819;-48
2022/06/03 09:54:49;;;;;;;5.80;5.30;;;29.70;55.20;;;;;;5097023;28;20171;-48
2022/06/03 09:57:18;;;;;;;5.23;4.83;;;30.20;54.10;;;;;;5099001;28;20704;-48
2022/06/03 10:00:10;;;;;;;6.13;5.50;;;30.40;52.50;;;;;;5097719;28;20460;-47
2022/06/03 10:02:35;;;;;;;5.30;4.90;;;30.60;52.60;;;;;;5097317;28;20512;-49
2022/06/03 10:05:02;;;;;;;5.30;4.90;;;30.90;53.00;;;;;;5099686;28;20374;-50
2022/06/03 10:07:28;;;;;;;5.77;5.20;;;31.40;50.90;;;;;;5097650;28;20173;-48
2022/06/03 10:12:56;;;;;;;4.60;4.30;;;31.70;50.60;;;;;;5097458;28;20227;-52
2022/06/03 10:15:38;;;;;;;4.60;4.30;;;31.60;49.00;;;;;;5098717;28;20389;-46
2022/06/03 10:18:09;;;;;;;4.20;3.90;;;31.90;49.80;;;;;;5097622;28;20397;-49
2022/06/03 10:20:36;;;;;;;4.70;4.30;;;32.20;47.40;;;;;;5098172;28;20892;-49
2022/06/03 10:23:08;;;;;;;5.27;4.87;;;32.40;47.80;;;;;;5097724;28;20517;-50
2022/06/03 10:25:39;;;;;;;5.77;4.90;;;32.70;47.10;;;;;;5098282;28;20392;-47
2022/06/03 10:28:07;;;;;;;4.87;4.57;;;32.60;47.10;;;;;;5098843;28;20495;-44
2022/06/03 10:30:37;;;;;;;5.57;5.20;;;32.10;47.20;;;;;;5098479;28;20499;-45
2022/06/03 10:33:05;;;;;;;4.97;4.67;;;31.70;47.70;;;;;;5097542;28;21016;-43
2022/06/03 10:35:38;;;;;;;5.60;5.10;;;31.40;48.30;;;;;;5097345;28;20403;-47
2022/06/03 10:38:06;;;;;;;5.40;4.53;;;31.90;47.90;;;;;;5096603;28;20402;-46
2022/06/03 10:40:32;;;;;;;4.70;4.40;;;32.80;48.30;;;;;;5098552;28;20475;-46
2022/06/03 10:43:01;;;;;;;5.00;4.70;;;33.60;45.30;;;;;;5098737;28;20488;-44
2022/06/03 10:45:28;;;;;;;4.90;4.37;;;34.10;44.20;;;;;;5098388;28;20482;-45
2022/06/03 10:47:54;;;;;;;5.20;4.63;;;34.30;44.20;;;;;;5099327;28;20414;-46
2022/06/03 10:50:34;;;;;;;5.80;4.50;;;33.90;44.40;;;;;;5079949;28;20712;-45
2022/06/03 11:01:56;;;;;;;4.60;4.30;;;34.80;43.40;;;;;;5096106;28;20874;-44
2022/06/03 11:04:23;;;;;;;4.57;4.17;;;34.70;42.70;;;;;;5096997;28;20418;-46
2022/06/03 11:06:49;;;;;;;5.77;4.73;;;34.40;42.70;;;;;;5095740;28;20438;-49
2022/06/03 11:09:17;;;;;;;4.40;4.10;;;33.80;42.60;;;;;;5095693;28;20413;-48
2022/06/03 11:11:49;;;;;;;4.27;3.90;;;32.90;43.30;;;;;;5094769;28;20445;-46
2022/06/03 11:14:23;;;;;;;4.27;3.97;;;32.10;44.30;;;;;;5096190;28;20392;-45
2022/06/03 11:17:02;;;;;;;5.07;4.77;;;31.40;45.30;;;;;;5094645;28;20396;-46
2022/06/03 11:19:34;;;;;;;4.83;4.40;;;30.90;45.80;;;;;;5095559;28;20712;-47
2022/06/03 11:22:14;;;;;;;4.80;4.50;;;30.60;46.70;;;;;;5094686;28;20467;-45
2022/06/03 11:24:40;;;;;;;5.27;4.87;;;30.30;47.60;;;;;;5095269;28;20388;-46
2022/06/03 11:27:08;;;;;;;5.90;5.30;;;30.10;47.80;;;;;;5092096;28;21103;-46
2022/06/03 11:29:37;;;;;;;5.67;5.10;;;29.70;48.60;;;;;;5092287;28;20435;-44
2022/06/03 11:32:05;;;;;;;5.20;4.80;;;29.40;49.40;;;;;;5091811;28;20427;-44
2022/06/03 11:34:36;;;;;;;4.90;4.50;;;29.20;50.00;;;;;;5091927;28;20416;-46
2022/06/03 11:37:10;;;;;;;4.70;4.30;;;29.20;50.40;;;;;;5092567;28;20478;-46
2022/06/03 11:39:43;;;;;;;5.93;4.37;;;29.20;50.20;;;;;;5093960;28;20468;-45
2022/06/03 11:42:23;;;;;;;4.73;4.30;;;29.50;50.20;;;;;;5092624;28;20607;-47
2022/06/03 11:45:15;;;;;;;5.00;4.60;;;30.00;49.00;;;;;;5092745;28;20414;-43
2022/06/03 11:47:55;;;;;;;4.90;4.50;;;30.60;48.80;;;;;;5045871;28;20842;-44
2022/06/03 11:50:24;;;;;;;5.07;4.57;;;30.90;48.10;;;;;;5075411;28;20435;-45
2022/06/03 11:52:52;;;;;;;6.43;4.30;;;31.20;48.20;;;;;;5095420;28;20465;-45
2022/06/03 11:55:19;;;;;;;5.30;4.90;;;31.30;48.50;;;;;;5076412;28;20411;-46
2022/06/03 11:57:57;;;;;;;4.77;4.37;;;31.30;48.20;;;;;;5094968;28;21000;-46
2022/06/03 12:00:24;;;;;;;4.77;4.37;;;31.20;48.10;;;;;;5093758;28;20411;-48
2022/06/03 12:03:27;;;;;;;4.47;4.07;;;31.10;47.60;;;;;;5095397;28;20392;-49
2022/06/03 12:06:04;;;;;;;3.93;3.73;;;30.70;47.40;;;;;;5094629;28;20388;-46
2022/06/03 12:08:48;;;;;;;4.27;3.97;;;30.60;48.10;;;;;;5093348;28;20435;-47
2022/06/03 12:14:37;;;;;;;4.77;4.37;;;30.50;48.70;;;;;;5087563;28;20868;-46
2022/06/03 12:17:11;;;;;;;6.47;4.47;;;30.60;48.70;;;;;;5094706;28;20868;-43
2022/06/03 12:19:46;;;;;;;4.77;4.40;;;30.60;48.70;;;;;;5094865;28;20397;-47
2022/06/03 12:22:41;;;;;;;6.40;4.03;;;30.70;48.70;;;;;;5095785;28;20474;-43
2022/06/03 12:25:34;;;;;;;5.07;4.67;;;30.60;48.70;;;;;;5077926;28;20447;-45
2022/06/03 12:28:03;;;;;;;4.60;4.20;;;30.40;49.30;;;;;;5095873;28;20448;-44
2022/06/03 12:30:50;;;;;;;4.87;4.57;;;30.10;49.70;;;;;;5094652;28;20728;-46
2022/06/03 12:33:26;;;;;;;4.73;4.37;;;29.90;50.40;;;;;;5094161;28;20505;-43
2022/06/03 12:35:56;;;;;;;5.70;5.20;;;29.70;50.80;;;;;;5094708;28;20414;-46
2022/06/03 12:38:23;;;;;;;5.50;4.37;;;29.50;50.40;;;;;;5095561;28;20884;-47
2022/06/03 12:41:00;;;;;;;5.53;5.03;;;29.10;49.50;;;;;;5093588;28;20538;-46
2022/06/03 12:43:29;;;;;;;5.53;5.03;;;28.70;49.90;;;;;;5093785;28;20385;-45
2022/06/03 12:46:06;;;;;;;5.03;4.63;;;28.40;50.20;;;;;;5093577;28;20642;-45
2022/06/03 12:48:43;;;;;;;5.10;4.70;;;28.10;50.90;;;;;;5092982;28;20402;-45
2022/06/03 12:51:20;;;;;;;4.60;4.20;;;27.80;51.20;;;;;;5091441;28;20556;-48
2022/06/03 12:53:47;;;;;;;5.10;4.60;;;27.60;52.10;;;;;;5093250;28;20393;-46
2022/06/03 12:56:44;;;;;;;5.00;4.60;;;27.40;52.90;;;;;;5091409;28;20423;-45
2022/06/03 12:59:22;;;;;;;5.20;4.80;;;27.30;52.40;;;;;;5088634;28;20429;-44
2022/06/03 13:02:23;;;;;;;6.67;6.07;;;27.30;52.70;;;;;;5091594;28;20461;-47
2022/06/03 13:04:54;;;;;;;5.30;4.90;;;27.20;53.80;;;;;;5011009;28;20427;-44
2022/06/03 13:07:25;;;;;;;5.73;5.23;;;27.20;53.50;;;;;;5080238;28;20414;-45
2022/06/03 13:10:11;;;;;;;5.47;5.00;;;27.40;54.20;;;;;;5091245;28;20403;-47
2022/06/03 13:12:37;;;;;;;7.60;5.60;;;27.50;53.70;;;;;;5073287;28;20540;-44
2022/06/03 13:15:20;;;;;;;5.10;4.70;;;27.60;53.30;;;;;;5093272;28;20439;-46
2022/06/03 13:18:20;;;;;;;5.27;4.87;;;27.60;53.60;;;;;;5091414;28;20166;-47
2022/06/03 13:20:47;;;;;;;5.50;5.03;;;27.50;53.60;;;;;;5090833;28;20476;-51
2022/06/03 13:23:34;;;;;;;5.47;4.77;;;27.50;53.30;;;;;;5090959;28;20479;-46
2022/06/03 13:26:30;;;;;;;11.20;4.97;;;27.40;53.50;;;;;;5090970;28;20428;-43
2022/06/03 13:29:04;;;;;;;6.63;5.93;;;27.40;53.70;;;;;;5089019;28;20483;-45
2022/06/03 13:31:43;;;;;;;6.47;6.07;;;27.30;56.30;;;;;;5093063;28;20429;-44
2022/06/03 13:34:09;;;;;;;10.10;7.63;;;27.20;57.50;;;;;;5093162;28;20419;-45
2022/06/03 13:36:35;;;;;;;7.20;6.50;;;27.10;58.60;;;;;;5091865;28;20392;-45
2022/06/03 13:39:02;;;;;;;8.53;7.40;;;27.00;60.20;;;;;;5093505;28;20450;-45
2022/06/03 13:44:48;;;;;;;8.07;7.30;;;26.70;61.10;;;;;;5093949;28;20503;-45
2022/06/03 13:47:25;;;;;;;11.07;7.10;;;26.80;61.30;;;;;;5091377;28;20425;-44
2022/06/03 13:50:19;;;;;;;8.63;7.80;;;26.80;62.60;;;;;;5093654;28;20659;-45
2022/06/03 13:53:22;;;;;;;7.63;6.70;;;27.00;64.40;;;;;;5094242;28;20433;-45
2022/06/03 13:56:16;;;;;;;7.70;7.10;;;26.90;65.90;;;;;;5078122;28;20429;-46
2022/06/03 13:58:42;;;;;;;9.40;8.40;;;26.90;66.60;;;;;;5083170;28;20825;-44
2022/06/03 14:01:27;;;;;;;8.93;7.17;;;26.80;67.50;;;;;;5092648;28;20496;-45
2022/06/03 14:03:58;;;;;;;8.77;7.93;;;26.80;67.60;;;;;;5092908;28;20420;-45
2022/06/03 14:06:50;;;;;;;10.73;8.57;;;26.70;67.80;;;;;;5093276;28;20711;-47
2022/06/03 14:09:22;;;;;;;9.30;7.97;;;26.60;68.10;;;;;;5093031;28;20403;-44
2022/06/03 14:11:53;;;;;;;12.83;9.03;;;26.60;67.80;;;;;;5093798;28;20426;-43
2022/06/03 14:14:38;;;;;;;8.10;7.50;;;26.50;68.40;;;;;;5096554;28;20472;-45
2022/06/03 14:17:26;;;;;;;13.27;8.50;;;26.40;68.60;;;;;;5098117;28;20704;-47
2022/06/03 14:20:07;;;;;;;8.07;7.33;;;26.30;68.50;;;;;;5080568;28;20436;-47
2022/06/03 14:22:35;;;;;;;10.30;8.43;;;26.20;69.00;;;;;;5098108;28;20462;-46
2022/06/03 14:25:17;;;;;;;9.90;7.63;;;26.30;69.20;;;;;;5097479;28;20388;-45
2022/06/03 14:27:56;;;;;;;7.87;6.60;;;26.20;69.00;;;;;;5098864;28;20905;-44